Time;durP1;ratioP1;P1;durP2;ratioP2;P2;SDS_P1;SDS_P2;PMS_P1;PMS_P2;Temp;Humidity;BMP_temperature;BMP_pressure;BME280_temperature;BME280_humidity;BME280_pressure;Samples;Min_cycle;Max_cycle;Signal;HPM_P1;HPM_P2
2021/03/24 00:00:37;;;;;;;;;;;;;;;20.97;36.97;101996.34;3087436;28;115675;-62
2021/03/24 00:02:08;;;;;;;;;;;;;;;20.97;36.65;101993.53;3086372;28;116509;-60
2021/03/24 00:03:41;;;;;;;;;;;;;;;20.96;36.51;101995.50;3090655;28;115988;-61
2021/03/24 00:05:14;;;;;;;;;;;;;;;20.97;36.43;101988.75;3108988;27;114636;-60
2021/03/24 00:06:45;;;;;;;;;;;;;;;20.95;36.61;101987.34;3095043;28;115738;-60
2021/03/24 00:08:19;;;;;;;;;;;;;;;20.95;36.83;101991.00;3086386;28;115965;-62
2021/03/24 00:09:50;;;;;;;;;;;;;;;20.95;36.61;101981.72;3096313;28;115957;-61
2021/03/24 00:11:21;;;;;;;;;;;;;;;20.96;36.97;101983.41;3087735;28;116121;-61
2021/03/24 00:12:52;;;;;;;;;;;;;;;20.95;36.97;101981.72;3087841;28;116842;-60
2021/03/24 00:14:23;;;;;;;;;;;;;;;20.95;36.79;101987.34;3109067;27;115672;-59
2021/03/24 00:15:54;;;;;;;;;;;;;;;20.94;37.33;101983.69;3090065;28;116968;-60
2021/03/24 00:17:25;;;;;;;;;;;;;;;20.93;37.24;101976.41;3091217;28;115662;-61
2021/03/24 00:18:56;;;;;;;;;;;;;;;20.94;37.25;101988.50;3106967;28;114105;-60
2021/03/24 00:20:31;;;;;;;;;;;;;;;20.91;37.47;101987.06;3097866;28;114264;-59
2021/03/24 00:22:02;;;;;;;;;;;;;;;20.91;37.24;101973.03;3086711;28;114124;-62
2021/03/24 00:23:33;;;;;;;;;;;;;;;20.92;37.29;101982.28;3090937;28;113722;-61
2021/03/24 00:25:06;;;;;;;;;;;;;;;20.92;37.69;101982.28;3087246;28;114151;-60
2021/03/24 00:26:37;;;;;;;;;;;;;;;20.90;37.78;101976.97;3086338;28;113643;-61
2021/03/24 00:28:10;;;;;;;;;;;;;;;20.90;37.91;101973.31;3106389;27;113727;-60
2021/03/24 00:29:42;;;;;;;;;;;;;;;20.89;37.65;101977.25;3103486;27;113834;-61
2021/03/24 00:31:13;;;;;;;;;;;;;;;20.89;37.79;101971.66;3119772;27;113698;-62
2021/03/24 00:32:45;;;;;;;;;;;;;;;20.88;37.65;101975.56;3100917;27;113995;-61
2021/03/24 00:34:16;;;;;;;;;;;;;;;20.87;37.51;101974.72;3098408;28;114217;-60
2021/03/24 00:35:47;;;;;;;;;;;;;;;20.86;37.59;101968.25;3097695;28;113777;-61
2021/03/24 00:37:18;;;;;;;;;;;;;;;20.86;37.59;101973.03;3090816;28;113723;-59
2021/03/24 00:38:49;;;;;;;;;;;;;;;20.85;37.47;101972.19;3086367;28;113883;-62
2021/03/24 00:40:22;;;;;;;;;;;;;;;20.84;37.68;101976.16;3103558;28;114163;-59
2021/03/24 00:41:54;;;;;;;;;;;;;;;20.84;37.87;101970.53;3122492;27;115226;-61
2021/03/24 00:43:25;;;;;;;;;;;;;;;20.84;38.03;101972.50;3094720;27;114084;-59
2021/03/24 00:44:56;;;;;;;;;;;;;;;20.82;38.32;101975.59;3094702;28;115013;-61
2021/03/24 00:46:27;;;;;;;;;;;;;;;20.82;38.20;101969.13;3097039;28;114032;-60
2021/03/24 00:47:58;;;;;;;;;;;;;;;20.82;38.36;101966.31;3087117;28;115189;-59
2021/03/24 00:49:29;;;;;;;;;;;;;;;20.81;38.01;101973.91;3092451;28;115248;-61
2021/03/24 00:51:01;;;;;;;;;;;;;;;20.80;38.02;101965.78;3086561;28;115082;-59
2021/03/24 00:52:32;;;;;;;;;;;;;;;20.78;38.51;101971.66;3098289;28;115824;-61
2021/03/24 00:54:03;;;;;;;;;;;;;;;20.79;38.41;101966.91;3090609;28;115657;-61
2021/03/24 00:55:34;;;;;;;;;;;;;;;20.77;38.35;101961.56;3080831;28;115541;-59
2021/03/24 00:57:05;;;;;;;;;;;;;;;20.76;38.18;101961.81;3084937;28;115301;-61
2021/03/24 00:58:37;;;;;;;;;;;;;;;20.75;38.05;101965.78;3087039;28;114245;-61
2021/03/24 01:00:11;;;;;;;;;;;;;;;20.75;38.37;101969.44;3087120;28;114917;-62
2021/03/24 01:01:42;;;;;;;;;;;;;;;20.73;38.43;101966.06;3090331;28;115031;-59
2021/03/24 01:03:14;;;;;;;;;;;;;;;20.72;38.04;101971.94;3110235;27;115407;-59
2021/03/24 01:04:46;;;;;;;;;;;;;;;20.71;38.18;101971.13;3097620;27;115751;-61
2021/03/24 01:06:17;;;;;;;;;;;;;;;20.70;38.07;101963.84;3090264;28;115706;-60
2021/03/24 01:07:49;;;;;;;;;;;;;;;20.70;38.26;101960.19;3087457;28;116045;-60
2021/03/24 01:09:20;;;;;;;;;;;;;;;20.69;38.33;101958.50;3101680;28;115752;-62
2021/03/24 01:10:52;;;;;;;;;;;;;;;20.66;38.17;101959.91;3100455;28;115915;-61
2021/03/24 01:12:23;;;;;;;;;;;;;;;20.65;38.42;101963.84;3098196;28;116480;-61
2021/03/24 01:13:54;;;;;;;;;;;;;;;20.64;38.44;101953.72;3089957;28;116081;-61
2021/03/24 01:15:25;;;;;;;;;;;;;;;20.63;38.51;101946.44;3088217;28;115150;-61
2021/03/24 01:16:56;;;;;;;;;;;;;;;20.60;38.29;101951.78;3097731;28;116340;-60
2021/03/24 01:18:28;;;;;;;;;;;;;;;20.63;38.24;101945.56;3090295;28;116246;-61
2021/03/24 01:19:59;;;;;;;;;;;;;;;20.60;38.17;101951.78;3092336;28;115865;-60
2021/03/24 01:21:30;;;;;;;;;;;;;;;20.58;38.62;101951.22;3103689;28;115757;-60
2021/03/24 01:23:01;;;;;;;;;;;;;;;20.57;38.41;101953.19;3117570;27;115674;-58
2021/03/24 01:24:32;;;;;;;;;;;;;;;20.53;38.17;101954.91;3100735;27;113770;-59
2021/03/24 01:26:03;;;;;;;;;;;;;;;20.54;38.19;101953.75;3097729;28;113746;-60
2021/03/24 01:27:34;;;;;;;;;;;;;;;20.53;38.30;101945.63;3097813;28;114150;-61
2021/03/24 01:29:05;;;;;;;;;;;;;;;20.53;38.22;101956.84;3086501;28;114126;-60
2021/03/24 01:30:37;;;;;;;;;;;;;;;20.51;38.30;101954.31;3086872;28;113910;-61
2021/03/24 01:32:08;;;;;;;;;;;;;;;20.49;38.53;101953.75;3097962;28;113908;-62
2021/03/24 01:33:39;;;;;;;;;;;;;;;20.50;38.37;101951.78;3092034;28;113916;-61
2021/03/24 01:35:11;;;;;;;;;;;;;;;20.50;38.59;101949.81;3085018;28;113873;-59
2021/03/24 01:36:42;;;;;;;;;;;;;;;20.49;38.67;101953.75;3086085;28;114139;-61
2021/03/24 01:38:13;;;;;;;;;;;;;;;20.47;38.50;101941.97;3109356;27;113645;-59
2021/03/24 01:39:44;;;;;;;;;;;;;;;20.48;38.63;101951.25;3085712;27;113795;-59
2021/03/24 01:41:16;;;;;;;;;;;;;;;20.47;38.48;101939.19;3111148;28;113887;-60
2021/03/24 01:42:47;;;;;;;;;;;;;;;20.48;38.51;101946.47;3088548;28;114229;-60
2021/03/24 01:44:18;;;;;;;;;;;;;;;20.44;38.63;101939.75;3089092;28;114043;-61
2021/03/24 01:45:58;;;;;;;;;;;;;;;20.43;38.86;101943.69;3085298;28;114956;-60
2021/03/24 01:47:29;;;;;;;;;;;;;;;20.42;38.54;101945.66;3086108;28;115121;-60
2021/03/24 01:49:01;;;;;;;;;;;;;;;20.41;38.93;101941.16;3111004;27;115582;-60
2021/03/24 01:50:33;;;;;;;;;;;;;;;20.41;38.92;101941.16;3092532;28;114385;-61
2021/03/24 01:52:19;;;;;;;;;;;;;;;20.39;38.98;101942.56;3097614;28;115996;-58
2021/03/24 01:53:51;;;;;;;;;;;;;;;20.37;39.24;101937.22;3097790;28;114355;-58
2021/03/24 01:55:23;;;;;;;;;;;;;;;20.38;39.18;101935.25;3094551;28;115065;-57
2021/03/24 01:56:58;;;;;;;;;;;;;;;20.37;38.85;101936.38;3086535;28;115103;-58
2021/03/24 01:58:29;;;;;;;;;;;;;;;20.35;39.33;101931.03;3085331;28;115041;-58
2021/03/24 02:00:00;;;;;;;;;;;;;;;20.36;38.75;101929.94;3087207;28;115063;-59
2021/03/24 02:01:31;;;;;;;;;;;;;;;20.39;39.10;101928.53;3086813;28;115414;-58
2021/03/24 02:03:04;;;;;;;;;;;;;;;20.34;39.12;101925.72;3107622;27;115489;-60
2021/03/24 02:04:35;;;;;;;;;;;;;;;20.32;39.24;101922.34;3094459;27;116001;-59
2021/03/24 02:06:09;;;;;;;;;;;;;;;20.32;39.36;101922.34;3112490;27;115031;-61
2021/03/24 02:07:49;;;;;;;;;;;;;;;20.35;38.89;101924.63;3099024;28;115280;-60
2021/03/24 02:09:29;;;;;;;;;;;;;;;20.32;38.96;101926.00;3089585;28;115895;-60
2021/03/24 02:11:05;;;;;;;;;;;;;;;20.30;39.31;101919.00;3107469;27;115954;-61
2021/03/24 02:12:46;;;;;;;;;;;;;;;20.29;39.37;101920.94;3092557;28;115710;-61
2021/03/24 02:14:21;;;;;;;;;;;;;;;20.29;39.12;101912.50;3080236;28;114307;-61
2021/03/24 02:15:55;;;;;;;;;;;;;;;20.27;39.29;101925.13;3084946;28;114607;-61
2021/03/24 02:17:28;;;;;;;;;;;;;;;20.28;39.09;101924.00;3099449;28;115680;-59
2021/03/24 02:19:01;;;;;;;;;;;;;;;20.25;39.24;101919.81;3109011;27;115699;-62
2021/03/24 02:20:37;;;;;;;;;;;;;;;20.26;39.21;101915.06;3093741;28;117485;-61
2021/03/24 02:22:09;;;;;;;;;;;;;;;20.24;39.19;101911.69;3089638;28;115866;-60
2021/03/24 02:23:40;;;;;;;;;;;;;;;20.24;39.56;101920.94;3113616;27;115791;-61
2021/03/24 02:25:17;;;;;;;;;;;;;;;20.25;39.25;101918.97;3093621;27;115690;-60
2021/03/24 02:26:52;;;;;;;;;;;;;;;20.21;39.59;101910.28;3086283;28;116107;-59
2021/03/24 02:28:23;;;;;;;;;;;;;;;20.23;39.53;101921.22;3085872;28;115817;-60
2021/03/24 02:30:00;;;;;;;;;;;;;;;20.21;39.36;101921.50;3109190;27;115689;-59
2021/03/24 02:31:33;;;;;;;;;;;;;;;20.20;39.32;101919.81;3097730;28;113700;-60
2021/03/24 02:33:08;;;;;;;;;;;;;;;20.20;39.25;101916.19;3099617;28;114071;-61
2021/03/24 02:34:41;;;;;;;;;;;;;;;20.18;39.45;101919.25;3088889;28;114044;-59
2021/03/24 02:36:14;;;;;;;;;;;;;;;20.18;39.32;101910.84;3110468;28;114796;-60
2021/03/24 02:37:46;;;;;;;;;;;;;;;20.17;39.49;101919.56;3090271;28;114167;-62
2021/03/24 02:39:19;;;;;;;;;;;;;;;20.20;39.36;101918.97;3089918;28;114702;-59
2021/03/24 02:40:52;;;;;;;;;;;;;;;20.16;39.40;101921.53;3091863;28;113704;-61
2021/03/24 02:42:23;;;;;;;;;;;;;;;20.17;39.37;101919.56;3108503;27;113957;-59
2021/03/24 02:43:55;;;;;;;;;;;;;;;20.16;39.34;101912.25;3093257;28;113826;-59
2021/03/24 02:45:29;;;;;;;;;;;;;;;20.16;39.45;101915.91;3086344;28;113955;-61
2021/03/24 02:47:01;;;;;;;;;;;;;;;20.15;39.37;101921.78;3086754;28;113764;-61
2021/03/24 02:48:34;;;;;;;;;;;;;;;20.15;39.30;101914.22;3121436;27;114322;-61
2021/03/24 02:50:06;;;;;;;;;;;;;;;20.17;39.30;101911.13;3093785;27;114006;-60
2021/03/24 02:51:38;;;;;;;;;;;;;;;20.15;39.57;101921.78;3099137;28;113878;-61
2021/03/24 02:53:09;;;;;;;;;;;;;;;20.16;39.50;101912.25;3090524;28;115060;-60
2021/03/24 02:54:42;;;;;;;;;;;;;;;20.15;39.32;101910.56;3114007;27;115058;-56
2021/03/24 02:56:13;;;;;;;;;;;;;;;20.12;39.58;101909.19;3093873;28;115079;-59
2021/03/24 02:57:44;;;;;;;;;;;;;;;20.12;39.58;101905.53;3087438;28;114477;-57
2021/03/24 02:59:16;;;;;;;;;;;;;;;20.16;39.38;101915.06;3084596;28;115197;-59
2021/03/24 03:00:47;;;;;;;;;;;;;;;20.11;39.43;101906.66;3100021;28;115684;-62
2021/03/24 03:02:22;;;;;;;;;;;;;;;20.11;39.49;101901.03;3088664;28;115735;-61
2021/03/24 03:03:55;;;;;;;;;;;;;;;20.10;39.34;101903.00;3091703;28;115364;-62
2021/03/24 03:05:29;;;;;;;;;;;;;;;20.10;39.26;101904.97;3104944;28;117171;-60
2021/03/24 03:07:03;;;;;;;;;;;;;;;20.10;39.34;101902.16;3090061;28;115431;-60
2021/03/24 03:08:36;;;;;;;;;;;;;;;20.08;39.35;101904.41;3083011;28;115089;-60
2021/03/24 03:10:10;;;;;;;;;;;;;;;20.07;39.52;101894.31;3088558;28;116045;-61
2021/03/24 03:11:51;;;;;;;;;;;;;;;20.07;39.43;101900.75;3097899;28;115079;-60
2021/03/24 03:13:28;;;;;;;;;;;;;;;20.04;39.55;101903.28;3093247;28;115305;-62
2021/03/24 03:15:01;;;;;;;;;;;;;;;20.07;39.33;101897.97;3088140;28;115658;-61
2021/03/24 03:16:42;;;;;;;;;;;;;;;20.06;39.62;101898.22;3088173;28;117915;-61
2021/03/24 03:18:14;;;;;;;;;;;;;;;20.04;39.55;101892.06;3088240;28;115971;-59
2021/03/24 03:19:56;;;;;;;;;;;;;;;20.07;39.52;101897.13;3087759;28;115621;-59
2021/03/24 03:21:30;;;;;;;;;;;;;;;20.06;39.46;101889.81;3087285;28;115775;-61
2021/03/24 03:23:05;;;;;;;;;;;;;;;20.06;39.42;101889.81;3097795;28;115906;-60
2021/03/24 03:24:38;;;;;;;;;;;;;;;20.03;39.55;101885.63;3111424;27;116203;-60
2021/03/24 03:26:12;;;;;;;;;;;;;;;20.03;39.54;101890.41;3090214;28;114688;-57
2021/03/24 03:27:43;;;;;;;;;;;;;;;20.03;39.52;101887.59;3087593;28;116173;-57
2021/03/24 03:29:16;;;;;;;;;;;;;;;20.04;39.49;101892.88;3122749;27;115639;-58
2021/03/24 03:30:49;;;;;;;;;;;;;;;20.02;39.49;101897.13;3105580;27;115686;-58
2021/03/24 03:32:21;;;;;;;;;;;;;;;20.01;39.59;101890.66;3092048;28;114632;-59
2021/03/24 03:33:54;;;;;;;;;;;;;;;19.98;39.51;101885.63;3097159;28;115710;-58
2021/03/24 03:35:28;;;;;;;;;;;;;;;19.99;39.73;101888.13;3102983;28;116118;-60
2021/03/24 03:37:00;;;;;;;;;;;;;;;19.98;39.66;101889.28;3088520;28;113978;-61
2021/03/24 03:38:33;;;;;;;;;;;;;;;19.95;39.80;101884.22;3090128;28;114165;-60
2021/03/24 03:40:06;;;;;;;;;;;;;;;19.97;39.84;101886.75;3098355;28;113805;-60
2021/03/24 03:41:37;;;;;;;;;;;;;;;19.97;39.87;101889.53;3110103;27;114358;-59
2021/03/24 03:43:11;;;;;;;;;;;;;;;19.97;39.71;101887.59;3095748;28;113926;-60
2021/03/24 03:44:42;;;;;;;;;;;;;;;19.97;39.70;101889.53;3074119;28;113973;-61
2021/03/24 03:46:15;;;;;;;;;;;;;;;19.94;39.84;101888.13;3075424;28;113642;-60
2021/03/24 03:47:47;;;;;;;;;;;;;;;19.93;39.78;101880.88;3098061;28;113919;-62
2021/03/24 03:49:18;;;;;;;;;;;;;;;19.93;39.99;101880.88;3089661;28;113770;-60
2021/03/24 03:50:53;;;;;;;;;;;;;;;19.92;40.20;101879.16;3111264;27;113879;-57
2021/03/24 03:52:34;;;;;;;;;;;;;;;19.93;40.34;101878.06;3094476;28;114109;-58
2021/03/24 03:54:05;;;;;;;;;;;;;;;19.92;40.29;101883.94;3091305;28;114076;-57
2021/03/24 03:55:39;;;;;;;;;;;;;;;19.91;40.29;101883.09;3088107;28;113911;-60
2021/03/24 03:57:14;;;;;;;;;;;;;;;19.91;40.31;101876.63;3087753;28;113853;-60
2021/03/24 03:58:47;;;;;;;;;;;;;;;19.91;40.35;101876.63;3083092;28;113850;-60
2021/03/24 04:00:19;;;;;;;;;;;;;;;19.91;40.22;101871.03;3111150;27;115158;-60
2021/03/24 04:01:51;;;;;;;;;;;;;;;19.89;40.02;101874.13;3091021;28;115498;-59
2021/03/24 04:03:28;;;;;;;;;;;;;;;19.88;40.32;101883.66;3117972;27;115209;-60
2021/03/24 04:05:04;;;;;;;;;;;;;;;19.88;40.45;101877.22;3078605;28;115448;-58
2021/03/24 04:06:38;;;;;;;;;;;;;;;19.87;40.16;101881.13;3082013;28;115253;-58
2021/03/24 04:08:10;;;;;;;;;;;;;;;19.86;40.08;101880.28;3111357;27;115128;-59
2021/03/24 04:09:43;;;;;;;;;;;;;;;19.88;40.26;101874.41;3098162;28;115128;-61
2021/03/24 04:11:17;;;;;;;;;;;;;;;19.86;40.45;101880.28;3102405;27;115125;-62
2021/03/24 04:12:48;;;;;;;;;;;;;;;19.86;40.41;101874.69;3086607;28;115108;-59
2021/03/24 04:14:22;;;;;;;;;;;;;;;19.85;40.33;101878.59;3107039;27;115452;-60
2021/03/24 04:15:55;;;;;;;;;;;;;;;19.83;40.51;101874.41;3098967;28;115528;-61
2021/03/24 04:17:29;;;;;;;;;;;;;;;19.83;40.19;101880.88;3087160;28;115285;-57
2021/03/24 04:19:02;;;;;;;;;;;;;;;19.83;40.29;101878.06;3086098;28;113960;-57
2021/03/24 04:20:34;;;;;;;;;;;;;;;19.82;40.16;101881.97;3103638;27;114956;-57
2021/03/24 04:22:05;;;;;;;;;;;;;;;19.85;40.19;101874.97;3099132;27;116774;-59
2021/03/24 04:23:38;;;;;;;;;;;;;;;19.82;40.24;101872.72;3084443;28;115774;-57
2021/03/24 04:25:12;;;;;;;;;;;;;;;19.80;40.28;101867.41;3088984;28;115747;-57
2021/03/24 04:26:45;;;;;;;;;;;;;;;19.78;40.28;101872.44;3089078;28;115683;-57
2021/03/24 04:28:18;;;;;;;;;;;;;;;19.79;40.17;101874.13;3090295;28;115852;-57
2021/03/24 04:29:53;;;;;;;;;;;;;;;19.79;40.41;101873.28;3087412;28;115752;-58
2021/03/24 04:31:25;;;;;;;;;;;;;;;19.80;40.56;101874.97;3091517;28;115718;-56
2021/03/24 04:32:57;;;;;;;;;;;;;;;19.79;40.17;101874.13;3093244;28;115647;-57
2021/03/24 04:34:28;;;;;;;;;;;;;;;19.80;40.35;101875.81;3106957;28;116184;-58
2021/03/24 04:36:03;;;;;;;;;;;;;;;19.81;40.21;101873.84;3087761;28;115811;-58
2021/03/24 04:37:37;;;;;;;;;;;;;;;19.79;40.36;101879.75;3086494;28;115831;-58
2021/03/24 04:39:14;;;;;;;;;;;;;;;19.81;40.06;101876.63;3084899;28;115727;-57
2021/03/24 04:40:49;;;;;;;;;;;;;;;19.78;40.28;101877.22;3092974;28;115634;-58
2021/03/24 04:42:24;;;;;;;;;;;;;;;19.78;40.31;101880.00;3101385;28;115686;-58
2021/03/24 04:43:58;;;;;;;;;;;;;;;19.77;40.20;101878.31;3073336;28;113745;-57
2021/03/24 04:45:32;;;;;;;;;;;;;;;19.77;39.97;101867.94;3096836;28;114471;-61
2021/03/24 04:47:06;;;;;;;;;;;;;;;19.74;40.18;101874.13;3091989;28;113742;-57
2021/03/24 04:48:40;;;;;;;;;;;;;;;19.74;40.15;101871.31;3092593;28;113704;-56
2021/03/24 04:50:19;;;;;;;;;;;;;;;19.72;40.50;101876.38;3086093;28;114224;-59
2021/03/24 04:51:51;;;;;;;;;;;;;;;19.71;40.65;101868.25;3092267;28;114184;-59
2021/03/24 04:53:23;;;;;;;;;;;;;;;19.75;40.59;101869.38;3099087;28;114036;-61
2021/03/24 04:54:56;;;;;;;;;;;;;;;19.72;40.53;101876.38;3090160;28;113807;-61
2021/03/24 04:56:27;;;;;;;;;;;;;;;19.72;40.42;101876.38;3105685;27;114048;-59
2021/03/24 04:58:00;;;;;;;;;;;;;;;19.69;40.48;101879.75;3101538;27;113702;-57
2021/03/24 04:59:35;;;;;;;;;;;;;;;19.69;40.36;101879.75;3097848;28;115051;-58
2021/03/24 05:01:12;;;;;;;;;;;;;;;19.68;40.37;101872.44;3088422;28;113788;-60
2021/03/24 05:02:50;;;;;;;;;;;;;;;19.67;40.17;101872.75;3113017;27;113962;-60
2021/03/24 05:04:28;;;;;;;;;;;;;;;19.71;39.98;101879.47;3103229;28;114084;-61
2021/03/24 05:06:03;;;;;;;;;;;;;;;19.67;39.97;101875.53;3089591;28;115184;-61
2021/03/24 05:07:36;;;;;;;;;;;;;;;19.66;40.27;101879.47;3106783;27;115051;-61
2021/03/24 05:09:08;;;;;;;;;;;;;;;19.67;40.09;101872.75;3088623;28;115734;-61
2021/03/24 05:10:39;;;;;;;;;;;;;;;19.65;40.33;101873.00;3110546;27;115792;-61
2021/03/24 05:12:14;;;;;;;;;;;;;;;19.69;40.41;101876.09;3096664;28;115504;-60
2021/03/24 05:13:52;;;;;;;;;;;;;;;19.70;40.65;101870.22;3107868;28;114515;-61
2021/03/24 05:15:26;;;;;;;;;;;;;;;19.76;40.28;101865.44;3100119;28;115236;-58
2021/03/24 05:17:12;;;;;;;;;;;;;;;19.79;40.58;101868.53;3106557;28;114876;-58
2021/03/24 05:18:50;;;;;;;;;;;;;;;19.82;40.81;101867.94;3095962;28;115182;-57
2021/03/24 05:20:31;;;;;;;;;;;;;;;19.83;40.77;101866.84;3080395;28;115127;-58
2021/03/24 05:22:08;;;;;;;;;;;;;;;19.87;40.70;101867.09;3075756;28;115340;-58
2021/03/24 05:23:39;;;;;;;;;;;;;;;19.90;41.18;101864.56;3098018;28;115110;-57
2021/03/24 05:25:11;;;;;;;;;;;;;;;19.91;41.09;101860.66;3091387;28;115055;-60
2021/03/24 05:26:47;;;;;;;;;;;;;;;19.95;41.08;101864.56;3091186;28;115178;-57
2021/03/24 05:28:21;;;;;;;;;;;;;;;19.99;41.09;101864.84;3090171;28;114608;-58
2021/03/24 05:29:55;;;;;;;;;;;;;;;20.04;41.86;101864.00;3097783;28;115939;-58
2021/03/24 05:31:29;;;;;;;;;;;;;;;20.09;40.99;101869.59;3093478;28;116024;-60
2021/03/24 05:33:04;;;;;;;;;;;;;;;20.13;41.02;101859.50;3074875;28;115825;-59
2021/03/24 05:34:38;;;;;;;;;;;;;;;20.17;41.10;101872.66;3108091;28;115991;-60
2021/03/24 05:36:11;;;;;;;;;;;;;;;20.22;40.82;101871.81;3091462;28;115704;-59
2021/03/24 05:37:42;;;;;;;;;;;;;;;20.27;40.95;101877.41;3085783;28;115950;-57
2021/03/24 05:39:13;;;;;;;;;;;;;;;20.32;41.00;101871.84;3079118;28;116396;-59
2021/03/24 05:40:51;;;;;;;;;;;;;;;20.37;41.18;101871.81;3082098;28;115033;-59
2021/03/24 05:42:32;;;;;;;;;;;;;;;20.42;41.44;101880.25;3086770;28;114662;-58
2021/03/24 05:44:13;;;;;;;;;;;;;;;20.47;41.29;101876.56;3093492;28;115748;-59
2021/03/24 05:45:54;;;;;;;;;;;;;;;20.52;40.69;101871.78;3097623;28;115715;-60
2021/03/24 05:47:33;;;;;;;;;;;;;;;20.56;40.67;101869.25;3093713;28;115911;-61
2021/03/24 05:49:10;;;;;;;;;;;;;;;20.61;40.80;101875.69;3110260;27;114678;-58
2021/03/24 05:50:44;;;;;;;;;;;;;;;20.65;40.45;101865.56;3097458;28;115724;-58
2021/03/24 05:52:20;;;;;;;;;;;;;;;20.70;40.25;101867.50;3086914;28;115001;-59
2021/03/24 05:54:01;;;;;;;;;;;;;;;20.74;40.11;101866.66;3078130;28;113707;-59
2021/03/24 05:55:35;;;;;;;;;;;;;;;20.78;40.10;101864.09;3080619;28;113903;-58
2021/03/24 05:57:16;;;;;;;;;;;;;;;20.82;39.95;101866.03;3085864;28;113644;-59
2021/03/24 05:58:51;;;;;;;;;;;;;;;20.88;40.18;101874.44;3087244;28;114209;-60
2021/03/24 06:00:31;;;;;;;;;;;;;;;20.92;40.33;101867.13;3110376;28;114284;-59
2021/03/24 06:02:08;;;;;;;;;;;;;;;20.97;39.96;101865.13;3091387;28;113850;-58
2021/03/24 06:03:49;;;;;;;;;;;;;;;21.00;39.64;101864.53;3108566;27;114044;-60
2021/03/24 06:05:25;;;;;;;;;;;;;;;21.04;39.36;101865.63;3090223;28;114620;-60
2021/03/24 06:07:06;;;;;;;;;;;;;;;21.07;39.12;101862.28;3087057;28;113725;-60
2021/03/24 06:08:46;;;;;;;;;;;;;;;21.12;39.45;101876.25;3102265;27;114255;-60
2021/03/24 06:10:17;;;;;;;;;;;;;;;21.16;39.17;101865.34;3090857;28;113959;-60
2021/03/24 06:11:59;;;;;;;;;;;;;;;21.19;39.29;101878.78;3084928;28;113862;-58
2021/03/24 06:13:40;;;;;;;;;;;;;;;21.26;39.97;101885.78;3113596;27;113647;-58
2021/03/24 06:15:20;;;;;;;;;;;;;;;21.30;39.54;101888.88;3094186;28;114038;-58
2021/03/24 06:17:02;;;;;;;;;;;;;;;21.35;39.24;101885.19;3088994;28;115143;-59
2021/03/24 06:18:35;;;;;;;;;;;;;;;21.38;38.94;101884.59;3089452;28;114169;-58
2021/03/24 06:20:07;;;;;;;;;;;;;;;21.42;38.95;101880.91;3085996;28;114968;-58
2021/03/24 06:21:48;;;;;;;;;;;;;;;21.45;39.19;101877.50;3086359;28;115118;-59
2021/03/24 06:23:28;;;;;;;;;;;;;;;21.49;39.22;101884.22;3086757;28;114379;-59
2021/03/24 06:24:59;;;;;;;;;;;;;;;21.52;39.15;101889.28;3086133;28;115624;-58
2021/03/24 06:26:31;;;;;;;;;;;;;;;21.56;38.84;101892.31;3107323;27;115171;-62
2021/03/24 06:28:12;;;;;;;;;;;;;;;21.59;39.18;101886.94;3082781;28;116014;-59
2021/03/24 06:29:45;;;;;;;;;;;;;;;21.62;39.61;101886.34;3109158;27;115237;-58
2021/03/24 06:31:20;;;;;;;;;;;;;;;21.66;39.80;101879.03;3098915;28;114301;-59
2021/03/24 06:33:01;;;;;;;;;;;;;;;21.70;39.98;101873.66;3098907;28;115092;-58
2021/03/24 06:34:42;;;;;;;;;;;;;;;21.72;39.10;101875.03;3092237;28;115062;-58
2021/03/24 06:36:21;;;;;;;;;;;;;;;21.77;38.99;101870.50;3090529;28;115174;-58
2021/03/24 06:38:01;;;;;;;;;;;;;;;21.79;39.21;101874.72;3100292;28;115728;-59
2021/03/24 06:39:42;;;;;;;;;;;;;;;21.81;38.92;101880.88;3110283;27;116034;-59
2021/03/24 06:41:22;;;;;;;;;;;;;;;21.84;38.83;101874.66;3090201;28;115777;-57
2021/03/24 06:43:02;;;;;;;;;;;;;;;21.87;38.87;101871.25;3087548;28;115682;-58
2021/03/24 06:44:37;;;;;;;;;;;;;;;21.91;38.52;101871.50;3099497;28;115753;-57
2021/03/24 06:46:17;;;;;;;;;;;;;;;21.92;38.56;101862.78;3088949;28;115974;-58
2021/03/24 06:47:58;;;;;;;;;;;;;;;21.97;38.73;101862.75;3085273;28;115905;-61
2021/03/24 06:49:36;;;;;;;;;;;;;;;21.99;38.51;101860.47;3075275;28;116020;-58
2021/03/24 06:51:17;;;;;;;;;;;;;;;22.03;38.72;101860.75;3091557;28;115717;-58
2021/03/24 06:52:48;;;;;;;;;;;;;;;22.05;38.55;101861.25;3084045;28;116081;-59
2021/03/24 06:54:29;;;;;;;;;;;;;;;22.08;39.03;101867.13;3090833;28;115691;-58
2021/03/24 06:56:22;;;;;;;;;;;;;;;22.10;39.40;101864.88;3085582;28;114576;-60
2021/03/24 06:58:03;;;;;;;;;;;;;;;22.15;39.03;101864.81;3105301;28;115869;-60
2021/03/24 06:59:44;;;;;;;;;;;;;;;22.17;38.91;101862.53;3093269;27;115687;-58
2021/03/24 07:01:25;;;;;;;;;;;;;;;22.22;38.79;101855.16;3090493;28;113679;-57
2021/03/24 07:03:08;;;;;;;;;;;;;;;22.25;38.60;101855.44;3098009;28;114504;-59
2021/03/24 07:04:49;;;;;;;;;;;;;;;22.29;38.73;101858.50;3098256;28;114111;-58
2021/03/24 07:06:29;;;;;;;;;;;;;;;22.32;39.48;101861.53;3089103;28;113706;-57
2021/03/24 07:08:09;;;;;;;;;;;;;;;22.35;39.10;101849.66;3085150;28;114262;-58
2021/03/24 07:09:40;;;;;;;;;;;;;;;22.39;38.82;101856.41;3084128;28;113935;-58
2021/03/24 07:11:22;;;;;;;;;;;;;;;22.46;39.37;101862.50;3081957;28;113929;-56
2021/03/24 07:13:06;;;;;;;;;;;;;;;22.48;39.44;101865.03;3090661;28;114207;-59
2021/03/24 07:14:47;;;;;;;;;;;;;;;22.50;39.24;101859.91;3106690;27;114010;-58
2021/03/24 07:16:19;;;;;;;;;;;;;;;22.52;38.95;101861.31;3085101;28;113975;-58
2021/03/24 07:17:51;;;;;;;;;;;;;;;22.54;38.65;101872.25;3083589;28;113736;-57
2021/03/24 07:19:32;;;;;;;;;;;;;;;22.53;38.53;101868.59;3082143;28;113993;-59
2021/03/24 07:21:06;;;;;;;;;;;;;;;22.55;38.31;101871.97;3084622;28;113806;-58
2021/03/24 07:22:44;;;;;;;;;;;;;;;22.55;38.15;101880.44;3085793;28;113694;-58
2021/03/24 07:24:16;;;;;;;;;;;;;;;22.53;37.94;101879.06;3083408;28;113719;-59
2021/03/24 07:25:55;;;;;;;;;;;;;;;22.53;37.78;101882.69;3083925;28;115076;-60
2021/03/24 07:27:29;;;;;;;;;;;;;;;22.54;37.89;101881.56;3082279;28;115530;-59
2021/03/24 07:29:10;;;;;;;;;;;;;;;22.54;37.64;101890.00;3087102;28;114993;-57
2021/03/24 07:30:41;;;;;;;;;;;;;;;22.56;37.44;101886.91;3095421;28;114833;-57
2021/03/24 07:32:36;;;;;;;;;;;;;;;22.54;37.29;101890.00;3091396;28;115156;-57
2021/03/24 07:34:08;;;;;;;;;;;;;;;22.56;37.58;101882.13;3097033;28;113948;-59
2021/03/24 07:35:47;;;;;;;;;;;;;;;22.55;37.26;101894.50;3088496;28;115159;-57
2021/03/24 07:37:18;;;;;;;;;;;;;;;22.56;37.12;101892.53;3087119;28;115541;-58
2021/03/24 07:38:59;;;;;;;;;;;;;;;22.54;37.23;101884.38;3086936;28;115447;-57
2021/03/24 07:40:40;;;;;;;;;;;;;;;22.54;37.29;101884.38;3108057;27;115083;-58
2021/03/24 07:42:12;;;;;;;;;;;;;;;22.54;36.99;101891.97;3096517;27;115794;-57
2021/03/24 07:43:53;;;;;;;;;;;;;;;22.51;36.94;101876.53;3115219;27;115223;-59
2021/03/24 07:45:28;;;;;;;;;;;;;;;22.50;37.11;101872.03;3096931;27;116145;-58
2021/03/24 07:47:00;;;;;;;;;;;;;;;22.49;37.11;101883.59;3125324;27;114069;-60
2021/03/24 07:48:32;;;;;;;;;;;;;;;22.50;37.15;101893.72;3096174;28;115584;-57
2021/03/24 07:50:03;;;;;;;;;;;;;;;22.48;36.86;101890.38;3095706;28;115796;-58
2021/03/24 07:51:35;;;;;;;;;;;;;;;22.47;36.70;101889.53;3090820;28;116179;-60
2021/03/24 07:53:16;;;;;;;;;;;;;;;22.46;36.96;101887.00;3120849;27;115736;-59
2021/03/24 07:54:48;;;;;;;;;;;;;;;22.44;36.88;101887.31;3105930;27;116515;-57
2021/03/24 07:56:29;;;;;;;;;;;;;;;22.43;36.96;101888.47;3097505;28;115643;-59
2021/03/24 07:58:09;;;;;;;;;;;;;;;22.41;36.70;101896.34;3095236;28;116588;-57
2021/03/24 07:59:49;;;;;;;;;;;;;;;22.41;36.69;101889.88;3090372;28;116108;-58